Vremea acum in Blaj - Romania

Vrei sa afli care e starea vremii acum in Alba - Romania? Dorim sa iti furnizam starea vremii pentru Alba - Romania. Starea vremii Alba - Romania pentru astazi.

Vremea acum in Blaj

Temperatura: 16.2 °C

Este: Burniță ușoară
Se simte ca: 16.2 °C
Innorat: 0 %
Precipitatii: 100 %
Presiune atmosferica: 1015 hPa
Umiditate: 77%
Vizibilitate: 10 km
Vantul bate din NNE cu 3.6 km/h

Evolutia vremii in Blaj pe ore

Ora: 11:00
Burniță ușoară
Temperatura: 14.1°C
Sansa de precipitatii: 100%
Ora Descriere Temp Se simte Precipitatii Umiditate Vant
00:00Patchy rain nearby12.4°12.8°67%86%NNW 4 KM/H
01:00Patchy rain nearby12°12°65%87%N 2.5 KM/H
02:00Patchy rain nearby12.2°12.2°100%87%N 1.8 KM/H
03:00Ploi usoare12.3°12.3°100%87%NNW 1.4 KM/H
04:00Burniță ușoară12.2°12.2°100%89%WNW 1.4 KM/H
05:00Burniță ușoară12.3°12.3°100%90%WSW 1.8 KM/H
06:00Burniță ușoară12.3°12.3°100%91%NW 1.1 KM/H
07:00Burniță ușoară12.9°12.9°100%91%NNW 0.7 KM/H
08:00Burniță ușoară13.5°13.5°100%91%N 1.8 KM/H
09:00Burniță ușoară13.7°13.7°100%91%N 2.9 KM/H
10:00Burniță ușoară16.2°14.7°100%77%NNE 3.6 KM/H
11:00Burniță ușoară14.1°14.1°100%89%NE 2.9 KM/H
12:00Burniță ușoară14.1°14.1°100%90%NNW 1.1 KM/H
13:00Burniță ușoară14.2°15.1°100%89%WSW 3.2 KM/H
14:00Burniță ușoară14.3°14.8°100%90%WSW 4.3 KM/H
15:00Burniță ușoară14.2°14.7°100%91%SW 4.7 KM/H
16:00Burniță ușoară14.1°14.1°100%92%SSW 2.9 KM/H
17:00Burniță ușoară13.8°13.8°100%93%SSW 2.9 KM/H
18:00Burniță ușoară13.4°13.4°100%94%SSW 2.9 KM/H
19:00Burniță ușoară13°13.6°100%96%SW 3.6 KM/H
20:00Burniță ușoară12.6°12.6°100%97%SSW 5.8 KM/H
21:00Ceata12.3°11.9°100%96%SSW 6.8 KM/H
22:00Ceata11.8°11.5°0%95%SW 6.1 KM/H
23:00Senin10.5°10.3°0%94%SW 5 KM/H




tutorials